createdAt,value
2022-10-14T00:01:11.280Z,49.50
2022-10-14T00:03:39.552Z,56.42
2022-10-14T00:06:12.325Z,48.75
2022-10-14T00:08:39.226Z,48.40
2022-10-14T00:11:11.972Z,48.22
2022-10-14T00:13:39.827Z,45.97
2022-10-14T00:16:07.734Z,49.63
2022-10-14T00:18:34.540Z,45.95
2022-10-14T00:21:03.384Z,48.45
2022-10-14T00:23:30.355Z,49.08
2022-10-14T00:25:57.140Z,45.85
2022-10-14T00:28:29.995Z,46.90
2022-10-14T00:31:00.056Z,48.28
2022-10-14T00:33:27.846Z,48.78
2022-10-14T00:35:58.876Z,48.03
2022-10-14T00:38:31.264Z,48.00
2022-10-14T00:40:58.604Z,50.90
2022-10-14T00:43:27.712Z,53.33
2022-10-14T00:45:54.917Z,54.78
2022-10-14T00:48:24.716Z,53.58
2022-10-14T00:50:56.472Z,52.30
2022-10-14T00:53:23.574Z,54.67
2022-10-14T00:55:52.774Z,53.78
2022-10-14T00:58:23.783Z,55.25
2022-10-14T01:00:50.810Z,52.67
2022-10-14T01:03:20.992Z,57.15
2022-10-14T01:06:15.473Z,53.67
2022-10-14T01:08:48.306Z,54.00
2022-10-14T01:11:44.825Z,49.13
2022-10-14T01:14:24.692Z,56.88
2022-10-14T01:17:02.566Z,55.55
2022-10-14T01:19:49.654Z,55.03
2022-10-14T01:22:25.298Z,55.90
2022-10-14T01:25:19.934Z,59.22
2022-10-14T01:28:25.060Z,56.10
2022-10-14T01:31:18.053Z,55.40
2022-10-14T01:33:48.602Z,63.00
2022-10-14T01:36:23.790Z,61.58
2022-10-14T01:39:12.889Z,59.72
2022-10-14T01:41:46.474Z,56.13
2022-10-14T01:44:16.811Z,59.67
2022-10-14T01:46:48.940Z,60.28
2022-10-14T01:49:27.139Z,62.65
2022-10-14T01:52:01.129Z,60.50
2022-10-14T01:54:33.992Z,59.08
2022-10-14T01:57:05.499Z,59.17
2022-10-14T01:59:35.487Z,58.55
2022-10-14T02:02:02.510Z,57.28
2022-10-14T02:04:29.424Z,62.00
2022-10-14T02:07:15.278Z,59.65
2022-10-14T02:13:00.494Z,59.60
2022-10-14T02:15:27.473Z,57.47
2022-10-14T02:18:23.930Z,54.85
2022-10-14T02:21:05.775Z,59.45
2022-10-14T02:23:39.034Z,57.92
2022-10-14T02:26:06.359Z,53.38
2022-10-14T02:28:33.821Z,56.42
2022-10-14T02:31:07.099Z,53.47
2022-10-14T02:33:42.888Z,53.63
2022-10-14T02:36:13.650Z,55.77
2022-10-14T02:38:41.837Z,59.00
2022-10-14T02:41:14.377Z,54.25
2022-10-14T02:43:41.269Z,54.17
2022-10-14T02:46:08.333Z,53.17
2022-10-14T02:48:35.312Z,52.42
2022-10-14T02:51:02.909Z,53.95
2022-10-14T02:53:30.695Z,46.97
2022-10-14T02:55:58.719Z,48.47
2022-10-14T02:58:25.843Z,50.47
2022-10-14T03:00:53.032Z,51.33
2022-10-14T03:03:20.532Z,51.47
2022-10-14T03:05:47.587Z,52.45
2022-10-14T03:08:16.450Z,49.65
2022-10-14T03:10:47.308Z,48.53
2022-10-14T03:13:15.563Z,46.75
2022-10-14T03:15:49.350Z,45.92
2022-10-14T03:18:18.366Z,48.35
2022-10-14T03:20:47.892Z,49.17
2022-10-14T03:23:26.740Z,41.67
2022-10-14T03:25:54.533Z,45.33
2022-10-14T03:28:26.273Z,45.67
2022-10-14T03:31:01.622Z,46.50
2022-10-14T03:33:43.467Z,47.38
2022-10-14T03:36:13.239Z,48.92
2022-10-14T03:38:45.235Z,57.17
2022-10-14T03:41:21.306Z,55.42
2022-10-14T03:43:48.435Z,53.72
2022-10-14T03:46:15.208Z,54.50
2022-10-14T03:48:42.473Z,51.45
2022-10-14T03:51:09.485Z,54.60
2022-10-14T03:53:36.868Z,53.67
2022-10-14T03:56:05.241Z,49.10
2022-10-14T03:58:33.143Z,51.88
2022-10-14T04:01:06.125Z,51.78
2022-10-14T04:03:54.638Z,48.28
2022-10-14T04:06:21.572Z,51.03
2022-10-14T04:08:52.940Z,49.88
2022-10-14T04:11:28.178Z,52.70
2022-10-14T04:14:01.407Z,49.45
2022-10-14T04:16:31.926Z,47.85
2022-10-14T04:19:02.938Z,50.95
2022-10-14T04:21:31.023Z,51.38
2022-10-14T04:23:58.417Z,49.33
2022-10-14T04:26:37.595Z,52.53
2022-10-14T04:29:11.097Z,49.63
2022-10-14T04:31:49.815Z,47.38
2022-10-14T04:34:18.235Z,50.10
2022-10-14T04:36:45.016Z,48.10
2022-10-14T04:39:23.274Z,46.25
2022-10-14T04:41:50.170Z,47.95
2022-10-14T04:44:19.911Z,48.20
2022-10-14T04:46:53.567Z,46.95
2022-10-14T04:49:23.636Z,47.03
2022-10-14T04:52:00.754Z,46.40
2022-10-14T04:54:35.177Z,46.93
2022-10-14T04:57:02.844Z,43.75
2022-10-14T04:59:30.241Z,45.15
2022-10-14T05:02:15.773Z,47.38
2022-10-14T05:04:50.986Z,45.47
2022-10-14T05:07:18.170Z,45.15
2022-10-14T05:09:52.078Z,45.35
2022-10-14T05:12:26.911Z,47.42
2022-10-14T05:14:59.088Z,44.72
2022-10-14T05:17:34.415Z,45.43
2022-10-14T05:20:01.185Z,45.40
2022-10-14T05:22:28.968Z,48.28
2022-10-14T05:24:55.891Z,47.97
2022-10-14T05:27:23.116Z,51.65
2022-10-14T05:29:50.820Z,45.55
2022-10-14T05:32:18.102Z,48.47
2022-10-14T05:34:46.484Z,47.30
2022-10-14T05:37:23.488Z,50.28
2022-10-14T05:39:52.600Z,49.97
2022-10-14T05:42:23.559Z,49.17
2022-10-14T05:44:53.561Z,47.22
2022-10-14T05:47:20.644Z,45.30
2022-10-14T05:49:51.428Z,46.35
2022-10-14T05:52:19.084Z,48.25
2022-10-14T05:54:46.300Z,46.58
2022-10-14T05:57:17.695Z,46.17
2022-10-14T05:59:44.687Z,43.10
2022-10-14T06:02:11.605Z,44.35
2022-10-14T06:04:41.080Z,43.00
2022-10-14T06:07:10.312Z,41.20
2022-10-14T06:09:38.576Z,44.65
2022-10-14T06:12:06.106Z,42.25
2022-10-14T06:14:33.326Z,40.58
2022-10-14T06:17:00.626Z,40.08
2022-10-14T06:19:27.522Z,39.28
2022-10-14T06:21:54.444Z,40.63
2022-10-14T06:24:21.230Z,44.92
2022-10-14T06:26:48.517Z,44.92
2022-10-14T06:29:16.487Z,42.50
2022-10-14T06:31:43.987Z,45.05
2022-10-14T06:34:11.103Z,44.60
2022-10-14T06:36:37.991Z,45.60
2022-10-14T06:39:05.318Z,43.38
2022-10-14T06:41:33.144Z,44.85
2022-10-14T06:44:00.087Z,44.25
2022-10-14T06:46:26.962Z,43.78
2022-10-14T06:48:53.779Z,44.85
2022-10-14T06:51:20.556Z,46.65
2022-10-14T06:53:47.363Z,46.13
2022-10-14T06:56:14.636Z,44.00
2022-10-14T06:58:41.530Z,47.60
2022-10-14T07:01:08.815Z,50.03
2022-10-14T07:03:37.041Z,53.25
2022-10-14T07:06:07.909Z,49.40
2022-10-14T07:08:35.099Z,52.78
2022-10-14T07:11:02.314Z,49.90
2022-10-14T07:13:29.507Z,50.88
2022-10-14T07:15:56.278Z,51.03
2022-10-14T07:18:23.393Z,58.92
2022-10-14T07:20:50.246Z,51.28
2022-10-14T07:23:17.169Z,51.35
2022-10-14T07:25:44.233Z,49.35
2022-10-14T07:28:11.241Z,46.47
2022-10-14T07:30:38.320Z,46.78
2022-10-14T07:33:05.238Z,45.55
2022-10-14T07:35:32.313Z,47.03
2022-10-14T07:37:59.789Z,49.83
2022-10-14T07:40:27.191Z,43.17
2022-10-14T07:42:54.050Z,47.20
2022-10-14T07:45:21.257Z,46.15
2022-10-14T07:47:50.070Z,44.13
2022-10-14T07:50:17.136Z,44.70
2022-10-14T07:52:44.007Z,45.85
2022-10-14T07:55:10.922Z,40.88
2022-10-14T07:57:37.833Z,37.75
2022-10-14T08:00:05.612Z,40.67
2022-10-14T08:02:38.951Z,37.75
2022-10-14T08:05:36.650Z,41.45
2022-10-14T08:07:53.181Z,37.70
2022-10-14T08:10:19.951Z,39.40
2022-10-14T08:12:46.730Z,42.47
2022-10-14T08:15:13.547Z,38.78
2022-10-14T08:17:40.413Z,37.30
2022-10-14T08:20:09.834Z,36.28
2022-10-14T08:22:36.746Z,35.20
2022-10-14T08:25:03.734Z,33.83
2022-10-14T08:27:30.534Z,38.15
2022-10-14T08:29:57.401Z,35.03
2022-10-14T08:32:24.770Z,35.20
2022-10-14T08:34:51.756Z,34.45
2022-10-14T08:37:18.612Z,38.20
2022-10-14T08:39:45.850Z,39.35
2022-10-14T08:42:16.193Z,37.08
2022-10-14T08:44:49.546Z,36.25
2022-10-14T08:47:22.074Z,49.83
2022-10-14T08:50:01.674Z,186.43
2022-10-14T08:52:40.692Z,40.40
2022-10-14T08:55:33.991Z,41.72
2022-10-14T08:58:10.529Z,41.58
2022-10-14T09:00:43.289Z,37.92
2022-10-14T09:03:23.904Z,41.33
2022-10-14T09:05:58.683Z,38.28
2022-10-14T09:08:32.937Z,37.33
2022-10-14T09:11:00.741Z,36.00
2022-10-14T09:13:39.803Z,38.97
2022-10-14T09:16:15.836Z,33.55
2022-10-14T09:18:53.796Z,31.20
2022-10-14T09:21:48.074Z,29.38
2022-10-14T09:24:21.863Z,28.50
2022-10-14T09:26:58.284Z,24.25
2022-10-14T09:29:25.904Z,24.73
2022-10-14T09:31:55.483Z,22.20
2022-10-14T09:34:31.468Z,20.52
2022-10-14T09:37:12.046Z,20.52
2022-10-14T09:39:40.817Z,22.33
2022-10-14T09:42:17.956Z,19.27
2022-10-14T09:44:44.850Z,20.02
2022-10-14T09:47:13.929Z,18.98
2022-10-14T09:49:42.570Z,18.85
2022-10-14T09:52:21.464Z,17.52
2022-10-14T09:54:58.577Z,17.85
2022-10-14T09:57:25.996Z,18.08
2022-10-14T10:00:00.591Z,18.50
2022-10-14T10:02:41.093Z,19.87
2022-10-14T10:05:27.460Z,16.88
2022-10-14T10:08:27.230Z,11.55
2022-10-14T10:11:06.743Z,12.38
2022-10-14T10:13:46.259Z,8.30
2022-10-14T10:16:25.278Z,8.68
2022-10-14T10:18:55.237Z,8.55
2022-10-14T10:21:30.551Z,6.63
2022-10-14T10:24:03.357Z,4.63
2022-10-14T10:26:33.763Z,5.80
2022-10-14T10:29:03.142Z,5.57
2022-10-14T10:31:35.761Z,5.43
2022-10-14T10:34:12.740Z,4.85
2022-10-14T10:36:57.566Z,7.22
2022-10-14T10:39:47.919Z,6.20
2022-10-14T10:42:28.720Z,5.18
2022-10-14T10:45:02.234Z,3.90
2022-10-14T10:47:49.910Z,4.00
2022-10-14T10:50:48.155Z,4.05
2022-10-14T10:53:41.186Z,4.65
2022-10-14T10:56:35.419Z,4.80
2022-10-14T10:59:49.082Z,4.65
2022-10-14T11:02:55.793Z,4.15
2022-10-14T11:08:21.250Z,3.03
2022-10-14T11:11:19.357Z,3.90
2022-10-14T11:14:16.820Z,2.83
2022-10-14T11:17:10.954Z,4.18
2022-10-14T11:19:52.900Z,4.63
2022-10-14T11:22:45.658Z,4.32
2022-10-14T11:25:33.679Z,4.22
2022-10-14T11:28:03.660Z,3.50
2022-10-14T11:30:44.196Z,5.00
2022-10-14T11:33:43.008Z,2.63
2022-10-14T11:36:44.080Z,7.50
2022-10-14T11:39:54.507Z,4.30
2022-10-14T11:42:39.410Z,2.40
2022-10-14T11:45:33.925Z,3.07
2022-10-14T11:48:24.290Z,2.67
2022-10-14T11:51:21.306Z,5.72
2022-10-14T11:54:11.456Z,4.43
2022-10-14T11:57:03.448Z,3.30
2022-10-14T11:59:41.395Z,2.33
2022-10-14T12:02:17.675Z,3.08
2022-10-14T12:04:52.469Z,1.58
2022-10-14T12:07:26.559Z,1.95
2022-10-14T12:10:12.152Z,2.35
2022-10-14T12:12:41.494Z,3.13
2022-10-14T12:15:18.520Z,2.30
2022-10-14T12:17:49.344Z,2.28
2022-10-14T12:20:38.042Z,3.45
2022-10-14T12:23:08.345Z,2.55
2022-10-14T12:25:48.623Z,2.50
2022-10-14T12:28:19.589Z,6.28
2022-10-14T12:30:47.638Z,3.13
2022-10-14T12:33:22.639Z,3.13
2022-10-14T12:36:01.848Z,2.08
2022-10-14T12:38:30.479Z,3.20
2022-10-14T12:41:55.732Z,3.60
2022-10-14T12:44:33.007Z,4.32
2022-10-14T12:47:00.094Z,5.63
2022-10-14T12:49:37.004Z,3.92
2022-10-14T12:52:08.732Z,3.17
2022-10-14T12:54:45.616Z,4.68
2022-10-14T12:57:25.043Z,4.10
2022-10-14T12:59:53.803Z,3.55
2022-10-14T13:02:24.245Z,3.42
2022-10-14T13:04:54.887Z,4.88
2022-10-14T13:07:41.828Z,7.03
2022-10-14T13:10:50.367Z,4.93
2022-10-14T13:13:42.345Z,2.83
2022-10-14T13:16:32.425Z,3.42
2022-10-14T13:19:02.827Z,3.83
2022-10-14T13:21:36.375Z,4.93
2022-10-14T13:24:17.895Z,5.65
2022-10-14T13:26:56.051Z,5.65
2022-10-14T13:29:30.272Z,7.93
2022-10-14T13:32:00.125Z,7.00
2022-10-14T13:34:45.940Z,4.57
2022-10-14T13:37:35.696Z,6.85
2022-10-14T13:40:12.911Z,7.43
2022-10-14T13:42:40.098Z,15.73
2022-10-14T13:45:12.096Z,4.55
2022-10-14T13:47:43.101Z,9.80
2022-10-14T13:50:13.198Z,6.38
2022-10-14T13:52:40.552Z,6.00
2022-10-14T13:55:20.232Z,6.50
2022-10-14T13:58:13.325Z,8.27
2022-10-14T14:01:04.313Z,10.13
2022-10-14T14:03:43.391Z,9.02
2022-10-14T14:06:16.557Z,7.68
2022-10-14T14:08:56.779Z,6.93
2022-10-14T14:11:32.652Z,9.30
2022-10-14T14:14:04.989Z,7.75
2022-10-14T14:16:56.898Z,8.15
2022-10-14T14:19:36.103Z,9.60
2022-10-14T14:22:16.483Z,9.35
2022-10-14T14:24:43.969Z,9.95
2022-10-14T14:27:20.477Z,12.32
2022-10-14T14:29:53.738Z,7.13
2022-10-14T14:32:28.594Z,9.65
2022-10-14T14:34:55.536Z,10.55
2022-10-14T14:40:20.908Z,8.50
2022-10-14T14:42:51.512Z,7.63
2022-10-14T14:45:30.421Z,10.18
2022-10-14T14:48:01.584Z,13.15
2022-10-14T14:50:37.413Z,8.18
2022-10-14T14:53:10.861Z,8.95
2022-10-14T14:55:43.523Z,9.88
2022-10-14T14:58:24.595Z,10.23
2022-10-14T15:00:54.659Z,12.57
2022-10-14T15:03:27.199Z,6.28
2022-10-14T15:06:04.884Z,10.95
2022-10-14T15:08:36.628Z,9.75
2022-10-14T15:11:04.278Z,7.65
2022-10-14T15:13:40.187Z,11.48
2022-10-14T15:16:07.427Z,12.82
2022-10-14T15:18:37.447Z,8.50
2022-10-14T15:21:20.500Z,9.15
2022-10-14T15:23:50.312Z,9.65
2022-10-14T15:26:36.843Z,9.38
2022-10-14T15:29:17.918Z,9.20
2022-10-14T15:32:03.367Z,9.52
2022-10-14T15:34:30.385Z,10.82
2022-10-14T15:36:57.172Z,7.45
2022-10-14T15:39:24.221Z,7.47
2022-10-14T15:41:51.204Z,10.98
2022-10-14T15:44:18.064Z,9.88
2022-10-14T15:47:04.619Z,8.50
2022-10-14T15:49:42.060Z,11.73
2022-10-14T15:52:15.572Z,9.32
2022-10-14T15:54:43.968Z,9.93
2022-10-14T15:57:14.074Z,11.70
2022-10-14T15:59:45.690Z,11.55
2022-10-14T16:02:19.520Z,10.07
2022-10-14T16:05:07.234Z,12.02
2022-10-14T16:07:33.503Z,11.73
2022-10-14T16:10:00.421Z,11.73
2022-10-14T16:12:27.510Z,10.38
2022-10-14T16:14:54.290Z,10.65
2022-10-14T16:17:21.706Z,14.82
2022-10-14T16:19:49.242Z,11.90
2022-10-14T16:22:16.162Z,13.65
2022-10-14T16:24:43.103Z,11.90
2022-10-14T16:27:09.998Z,14.93
2022-10-14T16:29:36.776Z,16.77
2022-10-14T16:32:03.627Z,15.20
2022-10-14T16:34:30.451Z,14.65
2022-10-14T16:36:57.331Z,18.30
2022-10-14T16:39:24.181Z,18.13
2022-10-14T16:41:51.039Z,17.52
2022-10-14T16:44:27.559Z,18.58
2022-10-14T16:47:14.646Z,19.58
2022-10-14T16:49:42.833Z,22.27
2022-10-14T16:52:10.044Z,14.65
2022-10-14T16:54:37.012Z,16.38
2022-10-14T16:57:04.614Z,19.75
2022-10-14T16:59:33.033Z,23.63
2022-10-14T17:02:00.629Z,21.30
2022-10-14T17:04:27.742Z,21.58
2022-10-14T17:07:07.184Z,25.23
2022-10-14T17:09:35.965Z,24.98
2022-10-14T17:12:06.785Z,24.95
2022-10-14T17:14:36.522Z,26.58
2022-10-14T17:17:03.965Z,23.73
2022-10-14T17:19:31.184Z,25.30
2022-10-14T17:21:58.649Z,27.48
2022-10-14T17:24:26.047Z,23.73
2022-10-14T17:26:52.908Z,27.27
2022-10-14T17:29:20.527Z,23.33
2022-10-14T17:31:50.243Z,30.00
2022-10-14T17:34:17.076Z,33.95
2022-10-14T17:36:43.962Z,29.63
2022-10-14T17:39:22.805Z,32.10
2022-10-14T17:41:56.243Z,30.92
2022-10-14T17:44:23.433Z,30.27
2022-10-14T17:46:50.325Z,34.20
2022-10-14T17:49:17.163Z,34.88
2022-10-14T17:51:44.908Z,33.97
2022-10-14T17:54:12.368Z,36.17
2022-10-14T17:56:40.322Z,33.90
2022-10-14T17:59:10.374Z,31.75
2022-10-14T18:02:01.010Z,32.05
2022-10-14T18:04:24.560Z,31.08
2022-10-14T18:06:52.623Z,33.25
2022-10-14T18:09:19.672Z,29.05
2022-10-14T18:12:07.494Z,33.78
2022-10-14T18:14:34.939Z,29.83
2022-10-14T18:17:02.128Z,31.27
2022-10-14T18:19:29.083Z,29.30
2022-10-14T18:21:56.071Z,31.17
2022-10-14T18:24:23.696Z,33.13
2022-10-14T18:26:51.418Z,32.85
2022-10-14T18:29:18.394Z,32.65
2022-10-14T18:31:45.254Z,27.05
2022-10-14T18:34:12.522Z,35.80
2022-10-14T18:36:39.409Z,30.25
2022-10-14T18:39:09.219Z,30.65
2022-10-14T18:41:39.156Z,31.48
2022-10-14T18:44:06.646Z,27.83
2022-10-14T18:46:35.803Z,27.23
2022-10-14T18:49:04.037Z,29.80
2022-10-14T18:51:36.470Z,29.58
2022-10-14T18:54:06.353Z,26.92
2022-10-14T18:56:38.624Z,30.10
2022-10-14T18:59:11.010Z,26.08
2022-10-14T19:01:39.411Z,36.60
2022-10-14T19:04:07.680Z,31.58
2022-10-14T19:06:35.274Z,32.00
2022-10-14T19:09:02.484Z,29.30
2022-10-14T19:11:30.577Z,31.40
2022-10-14T19:13:59.321Z,35.67
2022-10-14T19:16:30.634Z,32.53
2022-10-14T19:19:00.392Z,30.90
2022-10-14T19:21:29.680Z,27.38
2022-10-14T19:23:58.208Z,29.05
2022-10-14T19:26:28.135Z,29.48
2022-10-14T19:28:57.496Z,26.13
2022-10-14T19:31:26.243Z,28.10
2022-10-14T19:33:54.180Z,30.33
2022-10-14T19:36:22.795Z,27.63
2022-10-14T19:38:57.783Z,26.23
2022-10-14T19:41:26.437Z,28.25
2022-10-14T19:43:53.823Z,25.45
2022-10-14T19:46:27.298Z,31.40
2022-10-14T19:49:04.784Z,29.77
2022-10-14T19:51:32.910Z,31.90
2022-10-14T19:54:00.289Z,31.88
2022-10-14T19:56:28.040Z,29.00
2022-10-14T19:58:57.403Z,30.95
2022-10-14T20:01:27.014Z,29.30
2022-10-14T20:03:54.403Z,28.80
2022-10-14T20:06:22.229Z,30.58
2022-10-14T20:08:49.965Z,30.92
2022-10-14T20:11:19.598Z,26.02
2022-10-14T20:13:47.225Z,25.38
2022-10-14T20:16:14.030Z,28.67
2022-10-14T20:18:41.163Z,32.30
2022-10-14T20:21:10.455Z,31.30
2022-10-14T20:23:38.385Z,32.78
2022-10-14T20:26:17.568Z,33.35
2022-10-14T20:28:44.609Z,32.15
2022-10-14T20:31:13.957Z,34.22
2022-10-14T20:33:41.387Z,29.92
2022-10-14T20:36:12.643Z,28.55
2022-10-14T20:38:40.217Z,36.55
2022-10-14T20:41:10.053Z,33.55
2022-10-14T20:43:36.881Z,38.70
2022-10-14T20:46:03.791Z,29.63
2022-10-14T20:48:30.806Z,35.47
2022-10-14T20:50:57.631Z,32.67
2022-10-14T20:53:26.028Z,32.97
2022-10-14T20:55:52.832Z,31.02
2022-10-14T20:58:20.878Z,30.17
2022-10-14T21:00:47.634Z,28.73
2022-10-14T21:03:14.526Z,35.83
2022-10-14T21:05:41.291Z,34.92
2022-10-14T21:08:08.206Z,35.10
2022-10-14T21:10:35.148Z,35.88
2022-10-14T21:13:01.930Z,34.15
2022-10-14T21:15:28.875Z,33.45
2022-10-14T21:17:55.802Z,36.33
2022-10-14T21:20:22.580Z,31.77
2022-10-14T21:22:49.418Z,32.45
2022-10-14T21:25:16.306Z,34.83
2022-10-14T21:27:43.160Z,27.98
2022-10-14T21:30:10.950Z,32.60
2022-10-14T21:32:37.852Z,32.15
2022-10-14T21:35:05.127Z,38.85
2022-10-14T21:37:31.997Z,30.85
2022-10-14T21:39:58.789Z,31.35
2022-10-14T21:42:25.861Z,29.00
2022-10-14T21:44:52.783Z,32.00
2022-10-14T21:47:19.615Z,30.77
2022-10-14T21:49:46.938Z,34.10
2022-10-14T21:52:13.896Z,30.88
2022-10-14T21:54:40.766Z,31.73
2022-10-14T21:57:07.629Z,29.88
2022-10-14T21:59:34.401Z,27.40
2022-10-14T22:02:01.255Z,28.38
2022-10-14T22:04:28.279Z,31.05
2022-10-14T22:06:55.311Z,32.60
2022-10-14T22:09:22.140Z,36.00
2022-10-14T22:11:49.021Z,32.35
2022-10-14T22:14:19.586Z,28.88
2022-10-14T22:16:47.491Z,29.92
2022-10-14T22:19:15.043Z,32.25
2022-10-14T22:21:43.686Z,32.58
2022-10-14T22:24:10.929Z,32.40
2022-10-14T22:26:38.483Z,36.70
2022-10-14T22:29:16.901Z,31.52
2022-10-14T22:31:44.761Z,35.10
2022-10-14T22:34:14.191Z,32.30
2022-10-14T22:36:41.767Z,28.58
2022-10-14T22:39:12.805Z,29.02
2022-10-14T22:41:39.847Z,27.48
2022-10-14T22:44:08.481Z,34.17
2022-10-14T22:46:37.089Z,33.72
2022-10-14T22:49:04.068Z,26.88
2022-10-14T22:51:36.366Z,28.98
2022-10-14T22:54:04.256Z,30.48
2022-10-14T22:56:32.331Z,29.88
2022-10-14T22:59:02.432Z,30.10
2022-10-14T23:01:30.455Z,31.67
2022-10-14T23:03:58.643Z,32.08
2022-10-14T23:06:26.418Z,35.47
2022-10-14T23:08:54.311Z,30.30
2022-10-14T23:11:23.122Z,32.58
2022-10-14T23:13:50.515Z,34.13
2022-10-14T23:16:20.444Z,29.27
2022-10-14T23:18:48.026Z,33.22
2022-10-14T23:21:17.856Z,34.28
2022-10-14T23:23:45.733Z,35.13
2022-10-14T23:26:17.479Z,31.10
2022-10-14T23:28:49.261Z,30.45
2022-10-14T23:31:18.415Z,37.25
2022-10-14T23:33:45.559Z,36.33
2022-10-14T23:36:13.655Z,39.25
2022-10-14T23:38:41.247Z,38.08
2022-10-14T23:41:10.262Z,34.03
2022-10-14T23:43:37.780Z,35.35
2022-10-14T23:46:05.831Z,32.65
2022-10-14T23:48:33.526Z,32.72
2022-10-14T23:51:00.719Z,33.92
2022-10-14T23:53:28.171Z,31.33
2022-10-14T23:55:56.181Z,36.40
2022-10-14T23:58:24.292Z,33.20
